Michigan City, IN

12:03 AM CDT on May 01, 2017 (GMT -0500)
Michigan City Municipal

Weather History for KMGC - December, 2012

Change the Weather History Date:

Friday, December 21, 2012

  Actual Average (KSBN) Record (KSBN)
Temperature  
Mean Temperature 32 °F -  
Max Temperature 33 °F 33 °F 60 °F (1967)
Min Temperature 30 °F 20 °F -15 °F (1901)
Degree Days  
Heating Degree Days 34    
Moisture  
Dew Point 28 °F    
Average Humidity 86    
Maximum Humidity 100    
Minimum Humidity 75    
Precipitation  
Precipitation 0.00 in - - ()
Sea Level Pressure  
Sea Level Pressure 29.81 in    
Wind  
Wind Speed 21 mph (NW)    
Max Wind Speed 29 mph    
Max Gust Speed 45 mph    
Visibility 9 miles    
Events Rain , Snow    
Averages and records for this station are not official NWS values.
T = Trace of Precipitation, MM = Missing Value Source: NWS Daily Summary

Daily Weather History Graph

Daily Weather History Graph

Search for Another Location

Airport or City:

Trip Planner

Search our weather history database for the weather conditions in past years. The results will help you decide how hot, cold, wet, or windy it might be!

Date:

Astronomy

Dec. 21, 2012 Rise Set
Actual Time 7:11 AM CST 4:20 PM CST
Civil Twilight 6:39 AM CST 4:51 PM CST
Nautical Twilight 6:04 AM CST 5:26 PM CST
Astronomical Twilight 5:30 AM CST 6:00 PM CST
Moon 12:10 PM CST (12/21) 12:54 AM CST (12/21)
Length of Visible Light 10h 12m
Length of Day
9h 08m
Waxing Gibbous, 65% of the Moon is Illuminated
Dec 21
Waxing Gibbous
Dec 28
Full
Jan 4
Last Quarter
Jan 11
New
Jan 18
First Quarter

Hourly Weather History & Observations

Time (CST) Temp. Windchill Dew Point Humidity Pressure Visibility Wind Dir Wind Speed Gust Speed Precip Events Conditions
12:15 AM 33.8 °F 20.3 °F 32.0 °F 93% 29.33 in 3.0 mi NW 28.8 mph 43.7 mph N/A Rain Light Rain
12:35 AM 33.8 °F 21.6 °F 32.0 °F 93% 29.35 in 2.5 mi NW 23.0 mph 39.1 mph N/A   Overcast
12:55 AM 33.8 °F 22.2 °F 32.0 °F 93% 29.37 in 4.0 mi NW 20.7 mph 32.2 mph N/A Rain Light Rain
1:15 AM 33.8 °F 23.2 °F 33.8 °F 100% 29.39 in 5.0 mi NW 17.3 mph 38.0 mph N/A Rain Light Rain
1:55 AM 33.8 °F 22.2 °F 33.8 °F 100% 29.43 in 5.0 mi NW 20.7 mph 36.8 mph N/A Rain Light Rain
2:15 AM 33.8 °F 21.9 °F 33.8 °F 100% 29.45 in 10.0 mi NW 21.9 mph 34.5 mph N/A Rain Rain
2:35 AM 33.8 °F 21.9 °F 32.0 °F 93% 29.47 in 4.0 mi NW 21.9 mph 35.7 mph N/A Snow Light Snow
2:55 AM 33.8 °F 22.2 °F 32.0 °F 93% 29.48 in 5.0 mi NW 20.7 mph 35.7 mph N/A Rain Light Rain
3:15 AM 33.8 °F 22.2 °F 32.0 °F 93% 29.50 in 5.0 mi NNW 20.7 mph 35.7 mph N/A   Overcast
3:35 AM 33.8 °F 22.5 °F 32.0 °F 93% 29.51 in 3.0 mi NW 19.6 mph 28.8 mph N/A Snow Light Snow
3:55 AM 32.0 °F 19.5 °F 32.0 °F 100% 29.52 in 1.8 mi NW 21.9 mph 35.7 mph N/A Snow Light Snow
4:15 AM 32.0 °F 20.1 °F 32.0 °F 100% 29.54 in 2.0 mi NW 19.6 mph 35.7 mph N/A Snow Light Snow
4:35 AM 32.0 °F 19.2 °F 32.0 °F 100% 29.55 in 3.0 mi NW 23.0 mph 34.5 mph N/A Snow Light Snow
4:55 AM 32.0 °F 19.5 °F 32.0 °F 100% 29.56 in 10.0 mi NW 21.9 mph 39.1 mph N/A Snow Light Snow
5:15 AM 32.0 °F 18.9 °F 30.2 °F 93% 29.57 in 10.0 mi WNW 24.2 mph 41.4 mph N/A Snow Light Snow
5:35 AM 32.0 °F 19.5 °F 30.2 °F 93% 29.59 in 10.0 mi NW 21.9 mph 36.8 mph N/A Snow Light Snow
5:55 AM 32.0 °F 18.6 °F 30.2 °F 93% 29.61 in 10.0 mi NW 25.3 mph 40.3 mph N/A Snow Light Snow
6:15 AM 32.0 °F 19.2 °F 30.2 °F 93% 29.63 in 10.0 mi NW 23.0 mph 43.7 mph N/A   Light Drizzle
6:35 AM 32.0 °F 18.9 °F 28.4 °F 87% 29.64 in 10.0 mi NW 24.2 mph 36.8 mph N/A   Overcast
6:55 AM 32.0 °F 19.5 °F 28.4 °F 87% 29.66 in 10.0 mi NW 21.9 mph 39.1 mph N/A   Overcast
7:15 AM 32.0 °F 18.9 °F 28.4 °F 87% 29.67 in 10.0 mi NW 24.2 mph 44.9 mph N/A   Overcast
7:35 AM 32.0 °F 19.2 °F 28.4 °F 87% 29.68 in 10.0 mi NW 23.0 mph 35.7 mph N/A   Overcast
7:55 AM 32.0 °F 18.9 °F 28.4 °F 87% 29.69 in 10.0 mi NW 24.2 mph 32.2 mph N/A   Overcast
8:15 AM 32.0 °F 20.5 °F 28.4 °F 87% 29.70 in 10.0 mi NNW 18.4 mph 39.1 mph N/A   Overcast
8:35 AM 32.0 °F 18.1 °F 28.4 °F 87% 29.72 in 10.0 mi NW 27.6 mph 38.0 mph N/A   Overcast
8:55 AM 32.0 °F 19.2 °F 28.4 °F 87% 29.73 in 10.0 mi NW 23.0 mph 39.1 mph N/A   Overcast
9:15 AM 32.0 °F 19.5 °F 28.4 °F 87% 29.74 in 10.0 mi NW 21.9 mph 40.3 mph N/A   Overcast
9:35 AM 32.0 °F 19.2 °F 28.4 °F 87% 29.76 in 10.0 mi NW 23.0 mph 38.0 mph N/A   Overcast
9:55 AM 32.0 °F 21.2 °F 28.4 °F 87% 29.77 in 10.0 mi NW 16.1 mph 35.7 mph N/A   Overcast
10:15 AM 32.0 °F 20.5 °F 28.4 °F 87% 29.78 in 10.0 mi NW 18.4 mph 35.7 mph N/A   Overcast
10:35 AM 32.0 °F 20.8 °F 28.4 °F 87% 29.79 in 10.0 mi NW 17.3 mph 35.7 mph N/A   Overcast
10:55 AM 32.0 °F 20.8 °F 28.4 °F 87% 29.80 in 10.0 mi NW 17.3 mph 32.2 mph N/A   Overcast
11:15 AM 32.0 °F 18.9 °F 28.4 °F 87% 29.81 in 10.0 mi NW 24.2 mph 33.4 mph N/A   Overcast
11:35 AM 32.0 °F 20.1 °F 28.4 °F 87% 29.81 in 10.0 mi NW 19.6 mph 35.7 mph N/A   Overcast
11:55 AM 32.0 °F 18.4 °F 28.4 °F 87% 29.82 in 10.0 mi NNW 26.5 mph 36.8 mph N/A   Overcast
12:15 PM 32.0 °F 18.9 °F 28.4 °F 87% 29.82 in 10.0 mi NNW 24.2 mph 34.5 mph N/A   Overcast
12:35 PM 32.0 °F 19.5 °F 26.6 °F 80% 29.84 in 10.0 mi NW 21.9 mph 31.1 mph N/A   Overcast
12:55 PM 32.0 °F 19.5 °F 26.6 °F 80% 29.85 in 10.0 mi NW 21.9 mph 35.7 mph N/A   Overcast
1:15 PM 32.0 °F 21.2 °F 26.6 °F 80% 29.86 in 10.0 mi NW 16.1 mph 28.8 mph N/A   Overcast
1:35 PM 32.0 °F 20.8 °F 26.6 °F 80% 29.87 in 10.0 mi NW 17.3 mph 32.2 mph N/A   Overcast
1:55 PM 32.0 °F 19.2 °F 26.6 °F 80% 29.89 in 10.0 mi NW 23.0 mph 34.5 mph N/A   Overcast
2:15 PM 32.0 °F 19.5 °F 26.6 °F 80% 29.90 in 10.0 mi NW 21.9 mph 33.4 mph N/A   Overcast
2:35 PM 32.0 °F 20.5 °F 26.6 °F 80% 29.92 in 10.0 mi WNW 18.4 mph 34.5 mph N/A   Overcast
2:55 PM 32.0 °F 22.1 °F 26.6 °F 80% 29.93 in 10.0 mi NW 13.8 mph 32.2 mph N/A   Overcast
3:15 PM 32.0 °F 20.1 °F 26.6 °F 80% 29.94 in 10.0 mi NW 19.6 mph 31.1 mph N/A   Overcast
3:35 PM 32.0 °F 20.5 °F 26.6 °F 80% 29.96 in 10.0 mi NW 18.4 mph 26.5 mph N/A   Overcast
3:55 PM 32.0 °F 22.5 °F 26.6 °F 80% 29.97 in 10.0 mi NW 12.7 mph 25.3 mph N/A   Overcast
4:15 PM 32.0 °F 22.5 °F 26.6 °F 80% 29.99 in 10.0 mi NW 12.7 mph 24.2 mph N/A   Overcast
4:55 PM 32.0 °F 21.2 °F 26.6 °F 80% 30.01 in 10.0 mi NW 16.1 mph 29.9 mph N/A   Overcast
5:15 PM 32.0 °F 21.6 °F 26.6 °F 80% 30.02 in 10.0 mi NW 15.0 mph 24.2 mph N/A   Overcast
5:35 PM 32.0 °F 22.5 °F 26.6 °F 80% 30.03 in 10.0 mi NW 12.7 mph 26.5 mph N/A   Overcast
5:55 PM 32.0 °F 22.1 °F 26.6 °F 80% 30.04 in 10.0 mi NW 13.8 mph 24.2 mph N/A   Overcast
6:15 PM 32.0 °F 22.1 °F 26.6 °F 80% 30.05 in 10.0 mi NW 13.8 mph 26.5 mph N/A   Overcast
6:35 PM 32.0 °F 22.1 °F 26.6 °F 80% 30.06 in 10.0 mi NW 13.8 mph 26.5 mph N/A   Overcast
6:55 PM 32.0 °F 21.6 °F 26.6 °F 80% 30.06 in 10.0 mi NW 15.0 mph 24.2 mph N/A   Overcast
7:15 PM 32.0 °F 20.5 °F 26.6 °F 80% 30.06 in 10.0 mi NW 18.4 mph 28.8 mph N/A   Overcast
7:35 PM 32.0 °F 22.5 °F 26.6 °F 80% 30.07 in 10.0 mi NW 12.7 mph 24.2 mph N/A   Overcast
7:55 PM 30.2 °F 19.3 °F 26.6 °F 86% 30.08 in 10.0 mi NW 15.0 mph 25.3 mph N/A   Overcast
8:15 PM 30.2 °F 19.8 °F 26.6 °F 86% 30.08 in 10.0 mi NW 13.8 mph 27.6 mph N/A   Overcast
8:35 PM 30.2 °F 19.8 °F 26.6 °F 86% 30.08 in 10.0 mi NW 13.8 mph 26.5 mph N/A   Overcast
8:55 PM 30.2 °F 19.8 °F 26.6 °F 86% 30.09 in 10.0 mi NW 13.8 mph 20.7 mph N/A   Overcast
9:15 PM 30.2 °F 18.9 °F 26.6 °F 86% 30.10 in 10.0 mi NW 16.1 mph 23.0 mph N/A   Overcast
9:35 PM 30.2 °F 20.8 °F 26.6 °F 86% 30.10 in 10.0 mi NW 11.5 mph 20.7 mph N/A   Overcast
9:55 PM 30.2 °F 20.2 °F 26.6 °F 86% 30.10 in 10.0 mi NW 12.7 mph 20.7 mph N/A   Overcast
10:15 PM 30.2 °F 21.9 °F 26.6 °F 86% 30.10 in 10.0 mi NW 9.2 mph 17.3 mph N/A   Overcast
10:35 PM 30.2 °F 20.8 °F 24.8 °F 80% 30.12 in 10.0 mi NW 11.5 mph 19.6 mph N/A   Overcast
10:55 PM 30.2 °F 20.2 °F 23.0 °F 75% 30.11 in 10.0 mi NW 12.7 mph 19.6 mph N/A   Overcast
11:15 PM 30.2 °F 19.8 °F 24.8 °F 80% 30.12 in 10.0 mi NW 13.8 mph 18.4 mph N/A   Overcast
11:35 PM 30.2 °F 20.2 °F 23.0 °F 75% 30.12 in 10.0 mi NNW 12.7 mph 20.7 mph N/A   Overcast
11:55 PM 30.2 °F 21.9 °F 23.0 °F 75% 30.12 in 10.0 mi NW 9.2 mph 19.6 mph N/A   Overcast